Flight Track Log - Related Links

Times and Time Zones

All times are in EDT time to prevent confusion due to time zone crossing. See the ASQ4940 flight status page for this flight to view local times or setup timezone preferences in your user account.

Time Position Orientation Groundspeed Altitude Reporting Facility
EDT Latitude Longitude Course Direction KTS MPH feet Rate Location/Type
Wed 12:07:12 PM 43.2122 -89.2792 150° Southeast 205 236 4,200  Level Chicago Center
Wed 12:08:14 PM 43.2272 -89.1839 78° East 255 293 5,900 1,984 Climbing Chicago Center
Wed 12:09:16 PM 43.1833 -89.1111 130° Southeast 286 329 8,300 2,032 Climbing Chicago Center
Wed 12:10:18 PM 43.0858 -89.1078 179° South 300 345 10,100 1,728 Climbing Chicago Center
Wed 12:11:21 PM 42.9858 -89.1036 178° South 354 407 11,900 1,872 Climbing Chicago Center
Wed 12:12:00 PM 42.5094 -89.0610 150° Southeast  Level FlightAware Approximate
Wed 12:12:23 PM 42.9103 -89.0106 138° Southeast 373 429 14,000  Level Chicago Center
Wed 12:13:25 PM 42.8497 -88.9064 128° Southeast 356 410 16,900 2,081 Climbing Chicago Center
Wed 12:14:27 PM 42.7833 -88.8169 135° Southeast 349 402 18,300 1,742 Climbing Chicago Center
Wed 12:15:29 PM 42.6781 -88.7706 162° South 342 394 20,500 1,742 Climbing Chicago Center
Wed 12:16:31 PM 42.5856 -88.7333 163° South 347 399 21,900 1,161 Climbing Chicago Center
Wed 12:17:33 PM 42.4869 -88.6933 163° South 366 421 22,900 968 Climbing Chicago Center
Wed 12:18:35 PM 42.3822 -88.6514 164° South 388 447 23,900 1,016 Climbing Chicago Center
Wed 12:19:37 PM 42.2711 -88.5822 155° Southeast 406 467 25,000 919 Climbing Chicago Center
Wed 12:20:39 PM 42.1719 -88.4947 147° Southeast 430 495 25,800 768 Climbing Chicago Center
Wed 12:21:42 PM 42.0717 -88.4047 146° Southeast 434 499 26,600 768 Climbing Chicago Center
Wed 12:22:44 PM 41.9519 -88.3656 166° South 448 516 27,400 871 Climbing Chicago Center
Wed 12:23:46 PM 41.8086 -88.3194 167° South 446 513 28,400 823 Climbing Chicago Center
Wed 12:24:48 PM 41.6878 -88.2836 168° South 449 517 29,100 774 Climbing Chicago Center
Wed 12:25:50 PM 41.5661 -88.2467 167° South 452 520 30,000 919 Climbing Chicago Center
Wed 12:26:52 PM 41.4467 -88.2111 167° South 452 520 31,000 1,065 Climbing Chicago Center
Wed 12:27:54 PM 41.3033 -88.1653 166° South 457 526 32,200 1,065 Climbing Chicago Center
Wed 12:28:56 PM 41.1836 -88.1275 167° South 452 520 33,200 968 Climbing Chicago Center
Wed 12:29:58 PM 41.0664 -88.0900 166° South 443 510 34,200 871 Climbing Chicago Center
Wed 12:31:00 PM 40.9489 -88.0539 167° South 438 504 35,000 387 Climbing Chicago Center
Wed 12:32:02 PM 40.8072 -88.0097 167° South 440 506 35,000  Level Chicago Center
Wed 12:33:04 PM 40.6839 -87.9722 167° South 454 522 35,000  Level Chicago Center
Wed 12:34:07 PM 40.5581 -87.9342 167° South 463 533 35,000  Level Chicago Center
Wed 12:35:09 PM 40.4350 -87.8978 167° South 458 527 35,000  Level Chicago Center
Wed 12:36:11 PM 40.3119 -87.8611 167° South 456 525 35,000  Level Chicago Center
Wed 12:37:13 PM 40.1744 -87.8197 167° South 457 526 35,000  Level Chicago Center
Wed 12:38:15 PM 40.0494 -87.7850 168° South 459 528 35,000  Level Chicago Center
Wed 12:39:17 PM 39.9272 -87.7481 167° South 458 527 35,000  Level Chicago Center
Wed 12:40:19 PM 39.8022 -87.7119 167° South 460 529 35,000  Level Chicago Center
Wed 12:41:21 PM 39.6525 -87.6675 167° South 465 535 35,000  Level Chicago Center
Wed 12:42:23 PM 39.5272 -87.6308 167° South 463 533 35,000  Level Chicago Center
Wed 12:43:25 PM 39.4031 -87.5947 167° South 460 529 35,000  Level Chicago Center
Wed 12:44:27 PM 39.2769 -87.5592 168° South 467 537 35,000  Level Chicago Center
Wed 12:45:30 PM 39.1517 -87.5222 167° South 465 535 35,000  Level Chicago Center
Wed 12:46:32 PM 39.0156 -87.4833 167° South 462 532 35,000  Level Chicago Center
Wed 12:47:59 PM 38.8319 -87.4292 167° South 466 536 35,000  Level Indianapolis Center
Wed 12:49:01 PM 38.7058 -87.3939 168° South 464 534 35,000  Level Indianapolis Center
Wed 12:50:03 PM 38.5550 -87.3514 168° South 463 533 35,000  Level Indianapolis Center
Wed 12:51:05 PM 38.4289 -87.3164 168° South 465 535 35,000  Level Indianapolis Center
Wed 12:52:07 PM 38.3028 -87.2833 168° South 468 539 35,000  Level Indianapolis Center
Wed 12:53:09 PM 38.1778 -87.2456 167° South 471 542 35,000  Level Indianapolis Center
Wed 12:54:11 PM 38.0522 -87.2097 167° South 468 539 35,000  Level Indianapolis Center
Wed 12:55:13 PM 37.9011 -87.1664 167° South 466 536 35,000  Level Indianapolis Center
Wed 12:56:15 PM 37.7750 -87.1297 167° South 465 535 35,000  Level Indianapolis Center
Wed 12:57:17 PM 37.6489 -87.0944 168° South 463 533 35,000  Level Indianapolis Center
Wed 12:58:19 PM 37.5167 -87.0592 168° South 464 534 35,000  Level Indianapolis Center
Wed 12:59:21 PM 37.3900 -87.0272 169° South 461 531 35,000  Level Indianapolis Center
Wed 01:00:23 PM 37.2658 -86.9731 161° South 465 535 35,000 -145 Level Indianapolis Center
Wed 01:01:25 PM 37.1464 -86.9092 157° South 462 532 34,700 -677 Descending Indianapolis Center
Wed 01:02:27 PM 37.0256 -86.8439 157° South 467 537 33,600 -823 Descending Indianapolis Center
Wed 01:03:29 PM 36.8831 -86.7675 157° South 470 541 33,000 -303 Descending Indianapolis Center
Wed 01:04:26 PM 36.7825 -86.7122 156° South 465 535 33,000  Level Memphis Center
Wed 01:05:26 PM 36.6639 -86.6503 157° South 465 535 33,000  Level Memphis Center
Wed 01:06:26 PM 36.5347 -86.5811 157° South 460 529 33,000  Level Memphis Center
Wed 01:07:26 PM 36.4158 -86.5172 157° South 465 535 33,000  Level Memphis Center
Wed 01:08:26 PM 36.2953 -86.4558 158° South 465 535 33,000  Level Memphis Center
Wed 01:09:26 PM 36.1744 -86.3947 158° South 460 529 33,000  Level Memphis Center
Wed 01:10:26 PM 36.0686 -86.3436 159° South 465 535 33,000  Level Memphis Center
Wed 01:11:26 PM 35.9497 -86.2800 157° South 460 529 33,000  Level Memphis Center
Wed 01:13:07 PM 35.7478 -86.1753 157° South 460 529 33,000  Level Atlanta Center
Wed 01:14:07 PM 35.6339 -86.1161 157° South 454 522 33,000  Level Atlanta Center
Wed 01:15:07 PM 35.4994 -86.0514 159° South 463 533 33,000  Level Atlanta Center
Wed 01:16:08 PM 35.3753 -85.9897 158° South 474 545 33,000 -500 Level Atlanta Center
Wed 01:17:07 PM 35.2553 -85.9286 157° South 474 545 32,000 -1,600 Descending Atlanta Center
Wed 01:18:08 PM 35.1350 -85.8675 157° South 467 537 29,800 -2,000 Descending Atlanta Center
Wed 01:19:07 PM 35.0236 -85.7939 152° Southeast 461 531 28,000 -1,800 Descending Atlanta Center
Wed 01:20:08 PM 34.9183 -85.7131 148° Southeast 456 525 26,200 -1,800 Descending Atlanta Center
Wed 01:21:07 PM 34.8131 -85.6250 146° Southeast 451 519 24,400 -1,109 Descending Atlanta Center
Wed 01:22:07 PM 34.7056 -85.5447 148° Southeast 456 525 24,000 -1,000 Descending Atlanta Center
Wed 01:23:07 PM 34.6083 -85.4697 148° Southeast 436 502 22,400 -1,700 Descending Atlanta Center
Wed 01:24:07 PM 34.5153 -85.3975 147° Southeast 413 475 20,600 -1,785 Descending Atlanta Center
Wed 01:25:08 PM 34.4261 -85.3281 147° Southeast 400 460 18,800 -1,650 Descending Atlanta Center
Wed 01:26:07 PM 34.3392 -85.2589 147° Southeast 383 441 17,300 -1,550 Descending Atlanta Center
Wed 01:27:08 PM 34.2542 -85.1922 147° Southeast 376 433 15,700 -1,587 Descending Atlanta Center
Wed 01:28:08 PM 34.1694 -85.1258 147° Southeast 371 427 14,100 -1,300 Descending Atlanta Center
Wed 01:29:08 PM 34.1072 -85.0522 136° Southeast 360 414 13,100 -550 Descending Atlanta Center
Wed 01:30:08 PM 34.0433 -84.9789 136° Southeast 336 387 13,000 -550 Descending Atlanta Center
Wed 01:31:08 PM 33.9703 -84.9656 171° South 271 312 12,000 -1,160 Descending Atlanta Center
Wed 01:32:07 PM 33.8994 -84.9522 171° South 261 300 10,700 -1,500 Descending Atlanta Center
Wed 01:33:08 PM 33.8286 -84.9417 173° South 256 295 9,000 -1,041 Descending Atlanta Center
Wed 01:34:08 PM 33.7619 -84.9258 169° South 256 295 8,600 -706 Descending Atlanta Center
Wed 01:35:07 PM 33.6911 -84.9100 169° South 256 295 7,600 -906 Descending Atlanta Center
Wed 01:35:54 PM 33.6500 -84.8667 139° Southeast 237 273 7,000 -673 Descending Atlanta TRACON
Wed 01:36:54 PM 33.6333 -84.8000 107° East 202 232 6,400 -1,000 Descending Atlanta TRACON
Wed 01:37:54 PM 33.6333 -84.7333 90° East 194 223 5,000 -900 Descending Atlanta TRACON
Wed 01:38:54 PM 33.6333 -84.6833 90° East 184 212 4,600 -700 Descending Atlanta TRACON
Wed 01:39:54 PM 33.6333 -84.6167 90° East 193 222 3,600 -950 Descending Atlanta TRACON
Wed 01:40:54 PM 33.6333 -84.5500 90° East 154 177 2,700 -800 Descending Atlanta TRACON
Wed 01:41:54 PM 33.6333 -84.5000 90° East 145 167 2,000 -700 Descending Atlanta TRACON
Wed 01:42:54 PM 33.6333 -84.4667 90° East 144 166 1,300 -700 Descending Atlanta TRACON
Wed 01:44:00 PM 33.6367 -84.4279 90° East  Level Estimated
Wed 01:51:00 PM 33.6367 -84.4279 90° East  Level Estimated

Login

Don't have an account? Register now (free) for customized features, flight alerts, and more!